createdAt,value
2019-01-21T00:01:56.034Z,-5.83
2019-01-21T00:04:27.567Z,-5.85
2019-01-21T00:07:00.163Z,-5.98
2019-01-21T00:09:31.779Z,-5.93
2019-01-21T00:12:04.677Z,-5.99
2019-01-21T00:14:36.136Z,-5.96
2019-01-21T00:17:09.273Z,-6.03
2019-01-21T00:19:41.978Z,-6.11
2019-01-21T00:22:13.213Z,-6.22
2019-01-21T00:24:46.149Z,-6.23
2019-01-21T00:27:17.367Z,-6.20
2019-01-21T00:29:49.498Z,-6.16
2019-01-21T00:32:22.282Z,-6.12
2019-01-21T00:34:54.617Z,-6.14
2019-01-21T00:37:27.011Z,-6.17
2019-01-21T00:39:58.244Z,-6.19
2019-01-21T00:42:29.467Z,-6.17
2019-01-21T00:45:02.798Z,-6.23
2019-01-21T00:47:36.215Z,-6.28
2019-01-21T00:50:09.102Z,-6.18
2019-01-21T00:52:41.365Z,-6.27
2019-01-21T00:55:15.467Z,-6.29
2019-01-21T00:57:48.402Z,-6.23
2019-01-21T01:00:23.162Z,-6.23
2019-01-21T01:02:58.562Z,-6.21
2019-01-21T01:05:31.370Z,-6.24
2019-01-21T01:08:02.689Z,-6.22
2019-01-21T01:10:34.303Z,-6.21
2019-01-21T01:13:09.557Z,-6.28
2019-01-21T01:15:41.279Z,-6.22
2019-01-21T01:18:12.586Z,-6.07
2019-01-21T01:20:43.798Z,-5.95
2019-01-21T01:23:17.358Z,-5.83
2019-01-21T01:25:51.240Z,-5.91
2019-01-21T01:28:22.490Z,-6.06
2019-01-21T01:30:56.397Z,-6.21
2019-01-21T01:33:29.407Z,-6.09
2019-01-21T01:36:03.866Z,-6.10
2019-01-21T01:38:37.693Z,-6.16
2019-01-21T01:41:11.446Z,-5.97
2019-01-21T01:43:45.392Z,-5.89
2019-01-21T01:46:19.481Z,-5.86
2019-01-21T01:48:53.417Z,-5.71
2019-01-21T01:51:24.737Z,-5.99
2019-01-21T01:53:57.520Z,-6.01
2019-01-21T01:56:31.236Z,-5.85
2019-01-21T01:59:02.503Z,-5.85
2019-01-21T02:01:34.392Z,-5.78
2019-01-21T02:04:05.626Z,-5.71
2019-01-21T02:06:37.844Z,-5.61
2019-01-21T02:09:13.305Z,-5.65
2019-01-21T02:11:44.717Z,-5.64
2019-01-21T02:14:18.849Z,-5.47
2019-01-21T02:16:52.624Z,-5.40
2019-01-21T02:19:30.435Z,-5.43
2019-01-21T02:22:01.683Z,-5.52
2019-01-21T02:24:37.833Z,-5.47
2019-01-21T02:27:20.729Z,-5.73
2019-01-21T02:30:35.834Z,-5.56
2019-01-21T02:33:47.218Z,-5.45
2019-01-21T02:37:00.659Z,-5.27
2019-01-21T02:39:50.917Z,-5.36
2019-01-21T02:42:57.012Z,-5.33
2019-01-21T02:46:07.625Z,-5.27
2019-01-21T02:49:05.853Z,-5.21
2019-01-21T02:52:18.380Z,-5.27
2019-01-21T02:55:06.960Z,-5.31
2019-01-21T02:58:12.171Z,-5.33
2019-01-21T03:01:00.942Z,-5.39
2019-01-21T03:04:24.420Z,-5.41
2019-01-21T03:07:27.360Z,-5.52
2019-01-21T03:10:23.047Z,-5.59
2019-01-21T03:13:16.276Z,-5.61
2019-01-21T03:16:16.435Z,-5.65
2019-01-21T03:19:13.507Z,-5.72
2019-01-21T03:22:38.642Z,-5.82
2019-01-21T03:25:58.645Z,-5.74
2019-01-21T03:29:12.972Z,-5.86
2019-01-21T03:32:36.821Z,-5.81
2019-01-21T03:35:38.362Z,-5.86
2019-01-21T03:38:46.646Z,-5.84
2019-01-21T03:42:02.238Z,-5.85
2019-01-21T03:45:32.031Z,-5.93
2019-01-21T03:48:28.782Z,-6.00
2019-01-21T03:51:50.932Z,-6.10
2019-01-21T03:54:29.936Z,-6.03
2019-01-21T03:57:33.835Z,-6.21
2019-01-21T04:00:43.232Z,-6.24
2019-01-21T04:03:46.594Z,-6.37
2019-01-21T04:06:27.382Z,-6.43
2019-01-21T04:09:32.950Z,-6.47
2019-01-21T04:12:34.383Z,-6.43
2019-01-21T04:15:25.496Z,-6.61
2019-01-21T04:18:24.843Z,-6.63
2019-01-21T04:21:54.867Z,-6.46
2019-01-21T04:24:46.469Z,-6.52
2019-01-21T04:27:54.812Z,-6.47
2019-01-21T04:31:03.269Z,-6.58
2019-01-21T04:34:08.716Z,-6.54
2019-01-21T04:37:13.216Z,-6.60
2019-01-21T04:40:14.953Z,-6.53
2019-01-21T04:43:25.329Z,-6.59
2019-01-21T04:46:29.784Z,-6.62
2019-01-21T04:49:39.091Z,-6.68
2019-01-21T04:52:59.423Z,-6.84
2019-01-21T04:56:06.214Z,-6.84
2019-01-21T04:59:04.499Z,-6.90
2019-01-21T05:02:20.431Z,-6.91
2019-01-21T05:05:04.631Z,-6.94
2019-01-21T05:08:23.214Z,-6.89
2019-01-21T05:11:15.629Z,-7.02
2019-01-21T05:14:23.459Z,-7.03
2019-01-21T05:17:32.440Z,-6.99
2019-01-21T05:20:47.885Z,-7.07
2019-01-21T05:24:12.215Z,-7.07
2019-01-21T05:27:16.018Z,-7.12
2019-01-21T05:30:27.394Z,-7.12
2019-01-21T05:33:52.739Z,-7.05
2019-01-21T05:37:02.958Z,-7.10
2019-01-21T05:39:49.071Z,-7.11
2019-01-21T05:42:51.138Z,-7.17
2019-01-21T05:45:58.468Z,-7.17
2019-01-21T05:49:16.461Z,-7.25
2019-01-21T05:52:50.956Z,-7.30
2019-01-21T05:55:59.607Z,-7.34
2019-01-21T05:59:20.741Z,-7.34
2019-01-21T06:02:21.476Z,-7.34
2019-01-21T06:05:28.585Z,-7.43
2019-01-21T06:08:40.003Z,-7.49
2019-01-21T06:11:38.766Z,-7.58
2019-01-21T06:15:04.625Z,-7.58
2019-01-21T06:18:24.712Z,-7.51
2019-01-21T06:21:42.036Z,-7.53
2019-01-21T06:24:57.554Z,-7.59
2019-01-21T06:28:04.274Z,-7.64
2019-01-21T06:31:21.172Z,-7.61
2019-01-21T06:34:30.675Z,-7.72
2019-01-21T06:37:18.927Z,-7.72
2019-01-21T06:40:31.602Z,-7.62
2019-01-21T06:43:42.781Z,-7.68
2019-01-21T06:47:10.991Z,-7.68
2019-01-21T06:50:13.018Z,-7.80
2019-01-21T06:53:14.280Z,-7.81
2019-01-21T06:56:14.139Z,-7.77
2019-01-21T06:59:08.368Z,-7.77
2019-01-21T07:02:19.742Z,-7.72
2019-01-21T07:05:32.930Z,-7.69
2019-01-21T07:08:44.028Z,-7.69
2019-01-21T07:11:45.782Z,-7.80
2019-01-21T07:14:58.330Z,-7.92
2019-01-21T07:18:19.682Z,-7.92
2019-01-21T07:21:25.937Z,-7.80
2019-01-21T07:24:39.017Z,-7.90
2019-01-21T07:27:49.811Z,-7.90
2019-01-21T07:31:02.651Z,-7.81
2019-01-21T07:34:05.810Z,-7.74
2019-01-21T07:37:37.028Z,-7.75
2019-01-21T07:40:56.375Z,-7.77
2019-01-21T07:44:33.273Z,-7.74
2019-01-21T07:47:58.094Z,-7.33
2019-01-21T07:51:15.372Z,-7.33
2019-01-21T07:54:19.516Z,-7.16
2019-01-21T07:57:27.261Z,-7.40
2019-01-21T08:00:35.119Z,-7.39
2019-01-21T08:03:42.055Z,-7.20
2019-01-21T08:06:26.498Z,-6.98
2019-01-21T08:09:23.660Z,-6.96
2019-01-21T08:12:39.626Z,-6.61
2019-01-21T08:15:42.385Z,-6.41
2019-01-21T08:19:11.403Z,-6.06
2019-01-21T08:22:47.418Z,-5.82
2019-01-21T08:26:00.182Z,-5.67
2019-01-21T08:29:07.051Z,-5.20
2019-01-21T08:32:26.406Z,-5.08
2019-01-21T08:35:21.540Z,-4.79
2019-01-21T08:38:26.674Z,-4.62
2019-01-21T08:41:29.445Z,-4.00
2019-01-21T08:44:43.648Z,-4.04
2019-01-21T08:47:40.220Z,-3.25
2019-01-21T08:50:49.156Z,-3.22
2019-01-21T08:53:57.823Z,-3.28
2019-01-21T08:57:20.267Z,-3.06
2019-01-21T09:00:30.223Z,-2.35
2019-01-21T09:03:35.864Z,-1.88
2019-01-21T09:06:45.786Z,-1.10
2019-01-21T09:09:56.258Z,-0.25
2019-01-21T09:13:13.215Z,0.01
2019-01-21T09:16:12.165Z,0.22
2019-01-21T09:19:25.811Z,0.57
2019-01-21T09:22:38.813Z,1.15
2019-01-21T09:25:52.436Z,1.35
2019-01-21T09:28:37.857Z,1.95
2019-01-21T09:31:54.727Z,2.37
2019-01-21T09:35:05.535Z,2.85
2019-01-21T09:38:21.539Z,2.57
2019-01-21T09:41:25.422Z,3.25
2019-01-21T09:44:14.649Z,3.50
2019-01-21T09:46:45.873Z,3.79
2019-01-21T09:49:15.998Z,4.19
2019-01-21T09:52:11.910Z,4.35
2019-01-21T09:54:43.762Z,4.62
2019-01-21T09:57:22.638Z,4.61
2019-01-21T09:59:57.627Z,4.63
2019-01-21T10:02:43.993Z,3.89
2019-01-21T10:05:18.950Z,4.63
2019-01-21T10:08:39.281Z,4.03
2019-01-21T10:11:29.575Z,4.20
2019-01-21T10:14:39.637Z,3.98
2019-01-21T10:17:49.467Z,4.68
2019-01-21T10:21:01.947Z,3.15
2019-01-21T10:24:13.831Z,4.29
2019-01-21T10:27:37.514Z,4.93
2019-01-21T10:30:57.018Z,4.67
2019-01-21T10:33:58.475Z,5.78
2019-01-21T10:37:08.644Z,5.51
2019-01-21T10:40:22.330Z,6.19
2019-01-21T10:43:24.535Z,6.00
2019-01-21T10:46:08.794Z,4.55
2019-01-21T10:49:12.586Z,4.76
2019-01-21T10:52:20.526Z,5.48
2019-01-21T10:55:03.872Z,5.24
2019-01-21T10:57:47.588Z,5.12
2019-01-21T11:00:49.380Z,6.00
2019-01-21T11:04:04.827Z,6.82
2019-01-21T11:07:00.286Z,5.96
2019-01-21T11:10:00.286Z,6.05
2019-01-21T11:13:04.748Z,6.39
2019-01-21T11:15:51.117Z,5.37
2019-01-21T11:18:47.558Z,6.51
2019-01-21T11:21:44.692Z,6.98
2019-01-21T11:25:04.369Z,5.93
2019-01-21T11:27:54.479Z,5.65
2019-01-21T11:31:03.136Z,6.43
2019-01-21T11:33:49.174Z,6.75
2019-01-21T11:36:58.159Z,7.86
2019-01-21T11:40:08.796Z,7.75
2019-01-21T11:43:40.250Z,8.24
2019-01-21T11:46:23.610Z,7.56
2019-01-21T11:49:17.513Z,8.03
2019-01-21T11:52:10.068Z,8.08
2019-01-21T11:55:11.101Z,8.55
2019-01-21T11:58:15.216Z,8.04
2019-01-21T12:01:32.598Z,7.41
2019-01-21T12:04:15.768Z,7.45
2019-01-21T12:06:55.482Z,7.86
2019-01-21T12:10:03.967Z,7.24
2019-01-21T12:13:15.490Z,7.39
2019-01-21T12:16:21.132Z,6.71
2019-01-21T12:19:16.335Z,6.51
2019-01-21T12:22:36.882Z,7.47
2019-01-21T12:25:26.120Z,8.98
2019-01-21T12:28:38.986Z,9.04
2019-01-21T12:32:09.765Z,8.36
2019-01-21T12:35:05.616Z,8.51
2019-01-21T12:38:23.146Z,8.91
2019-01-21T12:41:44.239Z,8.33
2019-01-21T12:44:49.350Z,6.43
2019-01-21T12:47:40.416Z,5.55
2019-01-21T12:51:01.096Z,4.91
2019-01-21T12:54:15.430Z,4.01
2019-01-21T12:57:41.638Z,4.10
2019-01-21T13:00:43.148Z,3.87
2019-01-21T13:03:51.231Z,4.49
2019-01-21T13:06:53.185Z,4.71
2019-01-21T13:09:40.379Z,4.71
2019-01-21T13:12:42.323Z,5.00
2019-01-21T13:15:42.604Z,4.93
2019-01-21T13:19:04.847Z,4.62
2019-01-21T13:22:14.967Z,4.72
2019-01-21T13:25:14.255Z,5.50
2019-01-21T13:28:37.544Z,6.23
2019-01-21T13:31:27.770Z,6.58
2019-01-21T13:34:45.334Z,5.94
2019-01-21T13:37:43.364Z,6.74
2019-01-21T13:40:51.203Z,6.10
2019-01-21T13:43:50.829Z,7.25
2019-01-21T13:46:45.277Z,7.62
2019-01-21T13:49:28.001Z,8.57
2019-01-21T13:52:44.711Z,9.12
2019-01-21T13:55:26.552Z,9.34
2019-01-21T13:58:37.360Z,8.65
2019-01-21T14:01:41.649Z,9.43
2019-01-21T14:04:54.356Z,9.73
2019-01-21T14:08:20.604Z,10.51
2019-01-21T14:11:30.044Z,10.01
2019-01-21T14:14:35.315Z,9.98
2019-01-21T14:17:24.336Z,8.63
2019-01-21T14:20:44.714Z,7.95
2019-01-21T14:23:44.395Z,8.33
2019-01-21T14:26:36.715Z,8.88
2019-01-21T14:30:02.687Z,9.21
2019-01-21T14:33:13.039Z,9.60
2019-01-21T14:36:18.649Z,8.49
2019-01-21T14:39:22.692Z,7.53
2019-01-21T14:42:31.733Z,7.49
2019-01-21T14:45:28.289Z,7.21
2019-01-21T14:48:38.978Z,6.82
2019-01-21T14:52:17.340Z,6.46
2019-01-21T14:55:27.530Z,5.73
2019-01-21T14:58:30.953Z,4.83
2019-01-21T15:01:40.950Z,4.36
2019-01-21T15:04:59.163Z,3.89
2019-01-21T15:08:01.020Z,3.78
2019-01-21T15:11:28.252Z,3.33
2019-01-21T15:14:20.531Z,2.65
2019-01-21T15:17:21.776Z,2.32
2019-01-21T15:20:30.200Z,2.16
2019-01-21T15:23:37.624Z,1.83
2019-01-21T15:26:44.986Z,1.75
2019-01-21T15:29:45.171Z,1.65
2019-01-21T15:32:49.533Z,1.33
2019-01-21T15:36:13.648Z,1.16
2019-01-21T15:39:28.874Z,0.62
2019-01-21T15:42:41.559Z,0.43
2019-01-21T15:46:15.372Z,0.40
2019-01-21T15:49:13.429Z,0.13
2019-01-21T15:52:17.365Z,0.05
2019-01-21T15:55:27.041Z,-0.06
2019-01-21T15:58:42.842Z,-0.28
2019-01-21T16:01:52.257Z,-0.47
2019-01-21T16:04:37.103Z,-0.61
2019-01-21T16:07:32.511Z,-0.69
2019-01-21T16:10:57.070Z,-0.72
2019-01-21T16:13:43.237Z,-0.75
2019-01-21T16:16:50.099Z,-0.71
2019-01-21T16:19:36.412Z,-0.76
2019-01-21T16:22:41.147Z,-1.01
2019-01-21T16:25:44.042Z,-1.18
2019-01-21T16:28:41.411Z,-1.49
2019-01-21T16:32:11.344Z,-1.67
2019-01-21T16:35:25.198Z,-1.69
2019-01-21T16:38:39.081Z,-1.62
2019-01-21T16:42:00.990Z,-1.73
2019-01-21T16:44:32.470Z,-1.61
2019-01-21T16:47:03.851Z,-1.54
2019-01-21T16:49:38.677Z,-1.69
2019-01-21T16:52:10.302Z,-1.69
2019-01-21T16:54:43.358Z,-1.71
2019-01-21T16:57:16.026Z,-1.66
2019-01-21T16:59:47.285Z,-1.72
2019-01-21T17:02:21.259Z,-1.81
2019-01-21T17:04:54.558Z,-1.77
2019-01-21T17:07:25.967Z,-1.93
2019-01-21T17:10:00.685Z,-1.89
2019-01-21T17:12:33.604Z,-1.95
2019-01-21T17:15:08.764Z,-2.03
2019-01-21T17:17:41.546Z,-2.10
2019-01-21T17:20:19.090Z,-2.21
2019-01-21T17:22:52.858Z,-2.27
2019-01-21T17:25:25.492Z,-2.41
2019-01-21T17:27:57.491Z,-2.51
2019-01-21T17:30:30.309Z,-2.65
2019-01-21T17:33:02.659Z,-2.67
2019-01-21T17:35:36.750Z,-2.75
2019-01-21T17:38:09.637Z,-2.89
2019-01-21T17:40:41.829Z,-3.03
2019-01-21T17:43:15.846Z,-3.00
2019-01-21T17:45:49.243Z,-3.03
2019-01-21T17:48:22.722Z,-3.14
2019-01-21T17:50:56.755Z,-3.12
2019-01-21T17:53:30.778Z,-3.12
2019-01-21T17:56:03.838Z,-3.11
2019-01-21T17:58:39.789Z,-3.18
2019-01-21T18:01:12.806Z,-3.41
2019-01-21T18:03:46.656Z,-3.20
2019-01-21T18:06:17.890Z,-3.36
2019-01-21T18:08:52.180Z,-3.42
2019-01-21T18:11:27.525Z,-3.59
2019-01-21T18:13:59.916Z,-3.72
2019-01-21T18:16:31.157Z,-3.67
2019-01-21T18:19:03.733Z,-3.73
2019-01-21T18:21:40.228Z,-3.86
2019-01-21T18:24:11.555Z,-4.05
2019-01-21T18:26:43.877Z,-4.03
2019-01-21T18:29:17.872Z,-4.07
2019-01-21T18:31:54.193Z,-4.22
2019-01-21T18:34:25.913Z,-4.25
2019-01-21T18:37:01.641Z,-4.33
2019-01-21T18:39:32.973Z,-4.34
2019-01-21T18:42:07.256Z,-4.28
2019-01-21T18:44:39.298Z,-4.39
2019-01-21T18:47:13.100Z,-4.39
2019-01-21T18:49:44.603Z,-4.58
2019-01-21T18:52:18.016Z,-4.54
2019-01-21T18:54:51.872Z,-4.58
2019-01-21T18:57:23.219Z,-4.61
2019-01-21T18:59:57.093Z,-4.89
2019-01-21T19:02:31.746Z,-4.67
2019-01-21T19:05:04.690Z,-4.85
2019-01-21T19:07:36.113Z,-4.89
2019-01-21T19:10:08.805Z,-4.83
2019-01-21T19:12:41.280Z,-4.92
2019-01-21T19:15:18.605Z,-4.96
2019-01-21T19:17:52.205Z,-4.94
2019-01-21T19:20:26.049Z,-5.10
2019-01-21T19:22:57.381Z,-5.09
2019-01-21T19:25:30.182Z,-5.24
2019-01-21T19:28:02.552Z,-5.10
2019-01-21T19:30:36.138Z,-5.16
2019-01-21T19:33:07.753Z,-5.46
2019-01-21T19:35:41.216Z,-5.36
2019-01-21T19:38:13.040Z,-5.44
2019-01-21T19:40:46.293Z,-5.53
2019-01-21T19:43:20.500Z,-5.63
2019-01-21T19:45:54.804Z,-5.52
2019-01-21T19:48:28.216Z,-5.63
2019-01-21T19:51:02.280Z,-5.63
2019-01-21T19:53:39.056Z,-5.55
2019-01-21T19:56:10.342Z,-5.52
2019-01-21T19:58:45.796Z,-5.64
2019-01-21T20:01:19.607Z,-5.71
2019-01-21T20:03:53.343Z,-5.68
2019-01-21T20:06:26.415Z,-5.81
2019-01-21T20:09:00.149Z,-5.81
2019-01-21T20:11:34.826Z,-5.90
2019-01-21T20:14:04.420Z,-5.92
2019-01-21T20:16:36.325Z,-6.06
2019-01-21T20:19:10.389Z,-6.16
2019-01-21T20:21:44.277Z,-6.15
2019-01-21T20:24:18.314Z,-6.08
2019-01-21T20:26:52.288Z,-6.33
2019-01-21T20:29:28.106Z,-6.27
2019-01-21T20:31:59.526Z,-6.39
2019-01-21T20:34:31.516Z,-6.30
2019-01-21T20:37:03.945Z,-6.32
2019-01-21T20:39:35.642Z,-6.38
2019-01-21T20:42:07.656Z,-6.50
2019-01-21T20:44:40.578Z,-6.58
2019-01-21T20:47:13.550Z,-6.49
2019-01-21T20:49:45.933Z,-6.61
2019-01-21T20:52:19.630Z,-6.67
2019-01-21T20:54:53.701Z,-6.66
2019-01-21T20:57:27.642Z,-6.73
2019-01-21T21:00:03.123Z,-6.77
2019-01-21T21:02:34.816Z,-6.77
2019-01-21T21:05:07.036Z,-6.91
2019-01-21T21:07:40.745Z,-7.03
2019-01-21T21:10:16.419Z,-7.12
2019-01-21T21:12:49.389Z,-7.31
2019-01-21T21:15:26.788Z,-7.26
2019-01-21T21:18:00.680Z,-7.26
2019-01-21T21:20:34.516Z,-7.27
2019-01-21T21:23:07.638Z,-7.27
2019-01-21T21:25:39.722Z,-7.44
2019-01-21T21:28:14.479Z,-7.43
2019-01-21T21:30:46.787Z,-7.32
2019-01-21T21:33:18.182Z,-7.32
2019-01-21T21:35:51.745Z,-7.50
2019-01-21T21:38:23.720Z,-7.57
2019-01-21T21:40:56.689Z,-7.45
2019-01-21T21:46:53.101Z,-7.66
2019-01-21T21:49:24.739Z,-7.60
2019-01-21T21:51:57.839Z,-7.48
2019-01-21T21:54:31.962Z,-7.61
2019-01-21T21:57:04.096Z,-7.60
2019-01-21T21:59:36.657Z,-7.70
2019-01-21T22:02:08.371Z,-7.79
2019-01-21T22:04:41.775Z,-7.79
2019-01-21T22:07:16.166Z,-7.69
2019-01-21T22:09:48.990Z,-7.67
2019-01-21T22:12:21.878Z,-7.64
2019-01-21T22:14:54.873Z,-7.56
2019-01-21T22:17:29.075Z,-7.56
2019-01-21T22:20:01.906Z,-7.43
2019-01-21T22:22:34.878Z,-7.59
2019-01-21T22:25:08.319Z,-7.59
2019-01-21T22:27:41.962Z,-7.69
2019-01-21T22:30:18.521Z,-7.69
2019-01-21T22:32:49.768Z,-7.82
2019-01-21T22:35:21.011Z,-7.82
2019-01-21T22:37:55.023Z,-7.91
2019-01-21T22:40:29.046Z,-7.86
2019-01-21T22:43:01.842Z,-7.84
2019-01-21T22:45:34.216Z,-7.83
2019-01-21T22:48:07.215Z,-7.83
2019-01-21T22:50:40.208Z,-7.77
2019-01-21T22:53:13.191Z,-7.83
2019-01-21T22:55:47.162Z,-7.89
2019-01-21T22:58:23.042Z,-7.87
2019-01-21T23:01:11.443Z,-7.89
2019-01-21T23:03:44.182Z,-7.89
2019-01-21T23:06:18.226Z,-7.79
2019-01-21T23:08:53.707Z,-7.84
2019-01-21T23:11:26.033Z,-7.87
2019-01-21T23:13:57.502Z,-7.90
2019-01-21T23:16:32.057Z,-7.90
2019-01-21T23:19:04.805Z,-7.79
2019-01-21T23:21:36.014Z,-7.74
2019-01-21T23:24:10.264Z,-7.88
2019-01-21T23:26:44.094Z,-7.93
2019-01-21T23:29:16.223Z,-7.93
2019-01-21T23:31:49.228Z,-7.95
2019-01-21T23:34:20.472Z,-7.95
2019-01-21T23:36:55.952Z,-7.97
2019-01-21T23:39:28.732Z,-8.05
2019-01-21T23:42:03.804Z,-8.06
2019-01-21T23:44:36.243Z,-8.22
2019-01-21T23:47:09.680Z,-8.42
2019-01-21T23:49:40.895Z,-8.42
2019-01-21T23:52:14.561Z,-8.35
2019-01-21T23:54:48.216Z,-8.44
2019-01-21T23:57:22.388Z,-8.44
2019-01-21T23:59:58.253Z,-8.54
